createdAt,value
2023-02-04T00:00:13.524Z,5.53
2023-02-04T00:02:34.976Z,4.60
2023-02-04T00:04:56.058Z,6.37
2023-02-04T00:07:18.497Z,5.73
2023-02-04T00:09:39.607Z,6.23
2023-02-04T00:12:01.008Z,4.37
2023-02-04T00:14:22.397Z,5.10
2023-02-04T00:16:45.122Z,4.93
2023-02-04T00:19:06.287Z,4.80
2023-02-04T00:21:27.462Z,5.30
2023-02-04T00:23:49.857Z,5.30
2023-02-04T00:26:11.046Z,4.80
2023-02-04T00:28:32.192Z,4.33
2023-02-04T00:30:53.436Z,5.23
2023-02-04T00:33:15.983Z,4.10
2023-02-04T00:35:37.540Z,4.00
2023-02-04T00:37:58.853Z,4.53
2023-02-04T00:40:20.396Z,4.27
2023-02-04T00:42:41.632Z,4.40
2023-02-04T00:45:02.624Z,3.80
2023-02-04T00:47:23.960Z,4.30
2023-02-04T00:49:46.707Z,3.90
2023-02-04T00:52:07.949Z,3.90
2023-02-04T00:54:29.325Z,4.20
2023-02-04T00:56:50.537Z,3.40
2023-02-04T00:59:12.338Z,3.27
2023-02-04T01:01:33.528Z,3.67
2023-02-04T01:03:54.786Z,3.00
2023-02-04T01:06:17.504Z,2.87
2023-02-04T01:08:38.664Z,2.97
2023-02-04T01:11:00.113Z,2.97
2023-02-04T01:13:21.408Z,2.83
2023-02-04T01:15:42.564Z,2.63
2023-02-04T01:18:04.140Z,2.63
2023-02-04T01:20:25.211Z,3.10
2023-02-04T01:22:47.922Z,2.83
2023-02-04T01:25:09.328Z,2.90
2023-02-04T01:27:30.562Z,2.93
2023-02-04T01:29:51.904Z,2.70
2023-02-04T01:32:13.205Z,3.17
2023-02-04T01:34:34.519Z,2.73
2023-02-04T01:36:55.626Z,2.90
2023-02-04T01:39:18.189Z,2.73
2023-02-04T01:41:39.405Z,2.77
2023-02-04T01:44:00.688Z,3.47
2023-02-04T01:46:22.213Z,2.90
2023-02-04T01:48:43.568Z,3.93
2023-02-04T01:51:06.126Z,2.97
2023-02-04T01:53:27.437Z,4.50
2023-02-04T01:55:49.820Z,3.27
2023-02-04T01:58:11.866Z,4.57
2023-02-04T02:00:34.088Z,4.73
2023-02-04T02:02:55.713Z,3.30
2023-02-04T02:05:21.123Z,3.93
2023-02-04T02:07:42.456Z,4.80
2023-02-04T02:10:03.990Z,6.93
2023-02-04T02:12:26.547Z,4.10
2023-02-04T02:14:47.614Z,3.93
2023-02-04T02:17:08.952Z,3.37
2023-02-04T02:19:33.463Z,3.67
2023-02-04T02:21:57.921Z,3.53
2023-02-04T02:24:28.088Z,5.07
2023-02-04T02:26:49.180Z,6.43
2023-02-04T02:29:10.722Z,3.07
2023-02-04T02:31:32.732Z,3.80
2023-02-04T02:33:54.186Z,3.07
2023-02-04T02:36:15.728Z,3.73
2023-02-04T02:38:37.097Z,3.40
2023-02-04T02:41:00.124Z,4.33
2023-02-04T02:43:22.536Z,4.00
2023-02-04T02:45:44.133Z,4.03
2023-02-04T02:48:05.105Z,7.07
2023-02-04T02:50:27.975Z,3.60
2023-02-04T02:52:49.148Z,2.30
2023-02-04T02:55:14.049Z,4.03
2023-02-04T02:57:36.384Z,2.90
2023-02-04T02:59:57.592Z,5.10
2023-02-04T03:02:22.001Z,3.10
2023-02-04T03:04:44.730Z,6.70
2023-02-04T03:07:06.003Z,2.77
2023-02-04T03:09:28.326Z,5.80
2023-02-04T03:11:49.744Z,4.77
2023-02-04T03:14:12.262Z,3.57
2023-02-04T03:16:33.959Z,5.10
2023-02-04T03:18:55.183Z,7.07
2023-02-04T03:21:16.507Z,4.60
2023-02-04T03:23:37.793Z,5.30
2023-02-04T03:25:58.911Z,7.30
2023-02-04T03:28:20.221Z,6.60
2023-02-04T03:30:42.907Z,8.37
2023-02-04T03:33:03.984Z,8.10
2023-02-04T03:35:25.497Z,6.67
2023-02-04T03:37:46.677Z,5.87
2023-02-04T03:40:08.340Z,11.50
2023-02-04T03:42:29.402Z,4.93
2023-02-04T03:44:50.702Z,7.00
2023-02-04T03:47:13.282Z,5.37
2023-02-04T03:49:35.853Z,5.60
2023-02-04T03:51:56.867Z,6.80
2023-02-04T03:54:18.241Z,7.27
2023-02-04T03:56:39.576Z,7.37
2023-02-04T03:59:00.913Z,7.17
2023-02-04T04:01:22.498Z,6.97
2023-02-04T04:03:45.581Z,4.43
2023-02-04T04:06:09.932Z,6.60
2023-02-04T04:08:31.256Z,8.37
2023-02-04T04:10:52.588Z,5.43
2023-02-04T04:13:13.787Z,6.60
2023-02-04T04:15:34.845Z,5.63
2023-02-04T04:17:56.101Z,6.40
2023-02-04T04:20:18.775Z,7.83
2023-02-04T04:22:40.270Z,5.37
2023-02-04T04:25:01.705Z,4.53
2023-02-04T04:27:22.753Z,7.87
2023-02-04T04:29:44.219Z,8.20
2023-02-04T04:32:06.156Z,5.37
2023-02-04T04:34:27.451Z,4.67
2023-02-04T04:36:50.171Z,6.17
2023-02-04T04:39:11.604Z,5.57
2023-02-04T04:41:32.897Z,7.27
2023-02-04T04:43:54.234Z,6.20
2023-02-04T04:46:15.666Z,5.60
2023-02-04T04:48:36.789Z,6.90
2023-02-04T04:50:58.365Z,7.37
2023-02-04T04:53:20.663Z,8.20
2023-02-04T04:55:41.913Z,8.17
2023-02-04T04:58:03.204Z,7.20
2023-02-04T05:00:24.714Z,8.23
2023-02-04T05:02:45.935Z,8.37
2023-02-04T05:05:07.617Z,8.73
2023-02-04T05:07:29.139Z,11.07
2023-02-04T05:09:51.766Z,5.93
2023-02-04T05:12:13.243Z,6.77
2023-02-04T05:14:34.544Z,7.10
2023-02-04T05:16:55.931Z,11.00
2023-02-04T05:19:17.490Z,8.17
2023-02-04T05:21:38.781Z,7.63
2023-02-04T05:24:00.163Z,6.37
2023-02-04T05:26:30.223Z,6.07
2023-02-04T05:28:52.163Z,5.57
2023-02-04T05:31:13.650Z,7.60
2023-02-04T05:33:34.904Z,7.47
2023-02-04T05:35:56.302Z,9.80
2023-02-04T05:38:17.855Z,11.13
2023-02-04T05:40:39.117Z,9.00
2023-02-04T05:43:01.926Z,5.53
2023-02-04T05:45:23.153Z,8.57
2023-02-04T05:47:44.343Z,8.77
2023-02-04T05:50:06.421Z,10.23
2023-02-04T05:52:27.476Z,8.10
2023-02-04T05:54:48.712Z,6.33
2023-02-04T05:57:10.058Z,6.50
2023-02-04T05:59:32.740Z,10.63
2023-02-04T06:01:54.412Z,7.50
2023-02-04T06:04:16.537Z,7.03
2023-02-04T06:06:37.681Z,11.10
2023-02-04T06:08:59.206Z,8.63
2023-02-04T06:11:20.504Z,11.43
2023-02-04T06:13:41.901Z,9.07
2023-02-04T06:16:04.560Z,8.40
2023-02-04T06:18:25.732Z,8.60
2023-02-04T06:20:46.932Z,5.50
2023-02-04T06:23:08.148Z,9.70
2023-02-04T06:25:29.355Z,9.00
2023-02-04T06:27:51.249Z,12.17
2023-02-04T06:30:12.971Z,8.87
2023-02-04T06:32:35.769Z,8.97
2023-02-04T06:34:56.824Z,8.97
2023-02-04T06:37:18.322Z,10.20
2023-02-04T06:39:39.648Z,10.00
2023-02-04T06:42:00.648Z,12.20
2023-02-04T06:44:22.425Z,10.90
2023-02-04T06:46:43.475Z,9.53
2023-02-04T06:49:06.194Z,11.90
2023-02-04T06:51:27.802Z,9.30
2023-02-04T06:53:49.436Z,11.00
2023-02-04T06:56:10.974Z,10.80
2023-02-04T06:58:32.842Z,10.73
2023-02-04T07:00:54.114Z,11.53
2023-02-04T07:03:15.398Z,11.30
2023-02-04T07:05:37.977Z,14.60
2023-02-04T07:07:59.253Z,12.40
2023-02-04T07:10:21.217Z,11.57
2023-02-04T07:12:42.406Z,9.50
2023-02-04T07:15:03.724Z,12.73
2023-02-04T07:17:25.097Z,9.97
2023-02-04T07:19:46.401Z,9.40
2023-02-04T07:22:09.138Z,11.20
2023-02-04T07:24:30.802Z,12.83
2023-02-04T07:26:52.230Z,10.30
2023-02-04T07:29:20.704Z,9.07
2023-02-04T07:31:45.904Z,11.57
2023-02-04T07:34:07.118Z,13.30
2023-02-04T07:36:28.468Z,12.50
2023-02-04T07:38:51.092Z,12.90
2023-02-04T07:41:12.519Z,13.40
2023-02-04T07:43:33.890Z,14.20
2023-02-04T07:45:55.413Z,12.23
2023-02-04T07:48:16.661Z,11.00
2023-02-04T07:50:38.099Z,12.93
2023-02-04T07:52:59.413Z,9.60
2023-02-04T07:55:21.951Z,14.60
2023-02-04T07:57:43.140Z,8.80
2023-02-04T08:00:04.746Z,13.03
2023-02-04T08:02:26.134Z,10.33
2023-02-04T08:04:47.706Z,10.70
2023-02-04T08:07:09.193Z,10.97
2023-02-04T08:09:30.623Z,11.57
2023-02-04T08:11:53.315Z,8.20
2023-02-04T08:14:14.634Z,11.93
2023-02-04T08:16:35.871Z,13.03
2023-02-04T08:18:57.126Z,12.40
2023-02-04T08:21:19.544Z,14.10
2023-02-04T08:23:41.849Z,16.30
2023-02-04T08:26:03.146Z,9.27
2023-02-04T08:28:25.637Z,15.83
2023-02-04T08:30:46.950Z,14.07
2023-02-04T08:33:08.012Z,10.97
2023-02-04T08:35:29.097Z,13.07
2023-02-04T08:37:50.334Z,8.70
2023-02-04T08:40:12.338Z,14.93
2023-02-04T08:42:34.773Z,11.27
2023-02-04T08:44:57.429Z,9.53
2023-02-04T08:47:18.619Z,11.00
2023-02-04T08:49:39.759Z,12.87
2023-02-04T08:52:02.897Z,13.20
2023-02-04T08:54:25.714Z,12.83
2023-02-04T08:56:46.666Z,15.40
2023-02-04T08:59:07.985Z,11.33
2023-02-04T09:01:30.563Z,12.47
2023-02-04T09:03:51.704Z,9.57
2023-02-04T09:06:12.904Z,9.60
2023-02-04T09:08:34.294Z,11.77
2023-02-04T09:10:55.493Z,12.53
2023-02-04T09:13:16.858Z,14.17
2023-02-04T09:15:38.381Z,11.87
2023-02-04T09:18:11.395Z,11.50
2023-02-04T09:20:32.977Z,9.93
2023-02-04T09:22:54.285Z,10.50
2023-02-04T09:25:15.555Z,8.27
2023-02-04T09:27:36.845Z,11.57
2023-02-04T09:29:58.252Z,18.70
2023-02-04T09:32:19.561Z,18.13
2023-02-04T09:34:42.178Z,12.27
2023-02-04T09:37:03.179Z,11.00
2023-02-04T09:39:24.332Z,11.83
2023-02-04T09:41:45.597Z,10.83
2023-02-04T09:44:08.578Z,11.80
2023-02-04T09:46:30.290Z,9.83
2023-02-04T09:48:51.522Z,10.77
2023-02-04T09:51:15.868Z,8.87
2023-02-04T09:53:37.705Z,10.83
2023-02-04T09:55:58.891Z,8.07
2023-02-04T09:58:20.792Z,8.60
2023-02-04T10:00:41.943Z,10.77
2023-02-04T10:03:03.975Z,12.20
2023-02-04T10:05:27.779Z,15.83
2023-02-04T10:07:50.118Z,8.70
2023-02-04T10:10:14.861Z,11.30
2023-02-04T10:12:36.209Z,7.43
2023-02-04T10:14:57.372Z,11.13
2023-02-04T10:17:20.557Z,10.37
2023-02-04T10:19:41.776Z,10.13
2023-02-04T10:22:04.314Z,8.20
2023-02-04T10:24:28.060Z,9.90
2023-02-04T10:26:49.357Z,9.33
2023-02-04T10:29:14.544Z,9.20
2023-02-04T10:31:37.673Z,11.37
2023-02-04T10:34:05.993Z,9.07
2023-02-04T10:36:27.257Z,8.27
2023-02-04T10:39:00.272Z,8.60
2023-02-04T10:41:22.961Z,7.73
2023-02-04T10:43:44.221Z,9.90
2023-02-04T10:46:05.687Z,8.87
2023-02-04T10:48:27.869Z,12.93
2023-02-04T10:50:49.762Z,10.63
2023-02-04T10:53:29.722Z,9.40
2023-02-04T10:55:51.312Z,8.50
2023-02-04T10:58:16.406Z,11.40
2023-02-04T11:00:37.753Z,7.87
2023-02-04T11:03:00.459Z,11.10
2023-02-04T11:05:22.794Z,10.80
2023-02-04T11:07:44.187Z,7.63
2023-02-04T11:10:05.864Z,10.57
2023-02-04T11:12:37.912Z,8.87
2023-02-04T11:15:00.500Z,8.40
2023-02-04T11:17:22.219Z,7.03
2023-02-04T11:19:44.722Z,10.00
2023-02-04T11:22:07.439Z,10.73
2023-02-04T11:24:33.975Z,6.93
2023-02-04T11:27:07.003Z,7.63
2023-02-04T11:29:34.568Z,5.83
2023-02-04T11:32:01.024Z,9.27
2023-02-04T11:34:26.908Z,6.60
2023-02-04T11:36:52.539Z,8.03
2023-02-04T11:39:16.896Z,9.70
2023-02-04T11:41:38.088Z,8.37
2023-02-04T11:43:59.418Z,8.40
2023-02-04T11:46:20.743Z,6.80
2023-02-04T11:48:43.637Z,6.93
2023-02-04T11:51:12.312Z,9.93
2023-02-04T11:53:34.280Z,8.30
2023-02-04T11:55:55.167Z,9.27
2023-02-04T11:58:17.337Z,8.77
2023-02-04T12:00:38.963Z,7.87
2023-02-04T12:03:01.302Z,8.07
2023-02-04T12:05:23.978Z,7.77
2023-02-04T12:07:45.131Z,8.20
2023-02-04T12:10:12.209Z,7.73
2023-02-04T12:12:41.985Z,9.67
2023-02-04T12:15:04.200Z,22.60
2023-02-04T12:17:25.491Z,16.80
2023-02-04T12:19:46.996Z,10.67
2023-02-04T12:22:09.660Z,8.60
2023-02-04T12:24:31.081Z,6.53
2023-02-04T12:26:52.338Z,11.93
2023-02-04T12:29:13.580Z,6.67
2023-02-04T12:31:34.917Z,8.40
2023-02-04T12:33:56.089Z,10.63
2023-02-04T12:36:16.862Z,9.60
2023-02-04T12:38:39.405Z,12.07
2023-02-04T12:41:00.554Z,11.43
2023-02-04T12:43:21.682Z,6.03
2023-02-04T12:45:45.747Z,9.80
2023-02-04T12:48:07.262Z,7.50
2023-02-04T12:50:28.693Z,12.93
2023-02-04T12:52:51.105Z,7.07
2023-02-04T12:55:13.702Z,9.63
2023-02-04T12:57:35.306Z,10.60
2023-02-04T12:59:57.799Z,7.97
2023-02-04T13:02:18.839Z,9.47
2023-02-04T13:04:40.573Z,9.30
2023-02-04T13:07:03.604Z,9.77
2023-02-04T13:09:25.204Z,13.93
2023-02-04T13:11:47.801Z,6.83
2023-02-04T13:14:08.909Z,6.13
2023-02-04T13:16:29.997Z,8.43
2023-02-04T13:18:51.719Z,8.23
2023-02-04T13:21:13.124Z,10.17
2023-02-04T13:23:34.370Z,6.60
2023-02-04T13:25:55.720Z,6.03
2023-02-04T13:28:18.472Z,7.17
2023-02-04T13:30:39.882Z,7.40
2023-02-04T13:33:01.074Z,6.63
2023-02-04T13:35:22.460Z,8.23
2023-02-04T13:37:43.802Z,7.13
2023-02-04T13:40:05.248Z,6.10
2023-02-04T13:42:26.549Z,6.70
2023-02-04T13:44:49.017Z,6.13
2023-02-04T13:47:10.169Z,6.07
2023-02-04T13:49:31.519Z,8.63
2023-02-04T13:51:52.646Z,6.57
2023-02-04T13:54:13.876Z,5.63
2023-02-04T13:56:35.109Z,7.77
2023-02-04T13:58:56.633Z,8.23
2023-02-04T14:01:20.311Z,11.20
2023-02-04T14:03:43.314Z,10.10
2023-02-04T14:06:04.760Z,6.30
2023-02-04T14:08:25.846Z,7.30
2023-02-04T14:10:47.384Z,8.40
2023-02-04T14:13:08.369Z,12.80
2023-02-04T14:15:29.812Z,6.70
2023-02-04T14:17:52.172Z,11.33
2023-02-04T14:20:13.556Z,9.00
2023-02-04T14:22:34.530Z,7.10
2023-02-04T14:24:55.771Z,7.80
2023-02-04T14:27:17.177Z,8.27
2023-02-04T14:29:38.352Z,10.43
2023-02-04T14:31:59.463Z,7.90
2023-02-04T14:34:22.070Z,6.73
2023-02-04T14:36:43.461Z,7.37
2023-02-04T14:39:04.849Z,5.70
2023-02-04T14:41:26.379Z,10.27
2023-02-04T14:43:47.844Z,8.60
2023-02-04T14:46:09.127Z,7.77
2023-02-04T14:48:30.448Z,7.43
2023-02-04T14:50:53.115Z,8.67
2023-02-04T14:53:14.446Z,7.97
2023-02-04T14:55:35.678Z,9.00
2023-02-04T14:57:57.010Z,5.43
2023-02-04T15:00:18.877Z,10.70
2023-02-04T15:02:40.319Z,7.87
2023-02-04T15:05:01.672Z,8.63
2023-02-04T15:07:24.253Z,6.33
2023-02-04T15:09:45.546Z,6.57
2023-02-04T15:12:07.753Z,8.13
2023-02-04T15:14:29.153Z,7.40
2023-02-04T15:16:50.549Z,8.40
2023-02-04T15:19:11.867Z,9.87
2023-02-04T15:21:33.190Z,7.20
2023-02-04T15:23:55.980Z,7.60
2023-02-04T15:26:17.174Z,8.53
2023-02-04T15:28:38.529Z,9.00
2023-02-04T15:31:02.464Z,6.40
2023-02-04T15:33:23.531Z,6.63
2023-02-04T15:35:44.925Z,5.93
2023-02-04T15:38:05.911Z,7.90
2023-02-04T15:40:29.980Z,7.73
2023-02-04T15:42:52.941Z,8.60
2023-02-04T15:45:14.041Z,7.70
2023-02-04T15:47:35.301Z,8.03
2023-02-04T15:49:56.861Z,8.50
2023-02-04T15:52:24.413Z,6.53
2023-02-04T15:54:46.566Z,10.20
2023-02-04T15:57:09.309Z,8.23
2023-02-04T15:59:31.201Z,9.20
2023-02-04T16:01:52.285Z,8.10
2023-02-04T16:04:13.337Z,8.90
2023-02-04T16:06:34.661Z,8.67
2023-02-04T16:08:55.924Z,12.30
2023-02-04T16:11:17.693Z,14.07
2023-02-04T16:13:40.193Z,13.40
2023-02-04T16:16:01.833Z,9.60
2023-02-04T16:18:23.928Z,13.80
2023-02-04T16:20:45.251Z,12.03
2023-02-04T16:23:07.497Z,20.30
2023-02-04T16:25:28.611Z,10.73
2023-02-04T16:27:49.993Z,13.10
2023-02-04T16:30:13.637Z,9.57
2023-02-04T16:32:35.024Z,11.73
2023-02-04T16:34:56.856Z,10.27
2023-02-04T16:37:18.112Z,12.17
2023-02-04T16:39:39.676Z,11.20
2023-02-04T16:42:00.766Z,9.60
2023-02-04T16:44:22.061Z,10.00
2023-02-04T16:46:44.844Z,7.03
2023-02-04T16:49:06.033Z,10.10
2023-02-04T16:51:27.617Z,11.20
2023-02-04T16:53:48.676Z,9.47
2023-02-04T16:56:09.793Z,7.77
2023-02-04T16:58:31.195Z,12.07
2023-02-04T17:00:52.544Z,11.97
2023-02-04T17:03:15.389Z,12.73
2023-02-04T17:05:36.286Z,10.90
2023-02-04T17:07:58.433Z,15.00
2023-02-04T17:10:39.847Z,10.97
2023-02-04T17:13:00.791Z,11.27
2023-02-04T17:15:22.190Z,10.17
2023-02-04T17:17:43.600Z,10.73
2023-02-04T17:20:06.402Z,13.43
2023-02-04T17:22:27.776Z,10.80
2023-02-04T17:24:49.085Z,13.77
2023-02-04T17:27:10.364Z,10.40
2023-02-04T17:29:31.541Z,10.70
2023-02-04T17:31:53.652Z,11.07
2023-02-04T17:34:14.894Z,14.23
2023-02-04T17:36:37.656Z,12.13
2023-02-04T17:38:58.704Z,12.33
2023-02-04T17:41:19.929Z,15.27
2023-02-04T17:43:41.484Z,14.10
2023-02-04T17:46:02.936Z,10.10
2023-02-04T17:48:24.170Z,11.63
2023-02-04T17:50:45.551Z,17.57
2023-02-04T17:53:08.426Z,8.63
2023-02-04T17:55:30.858Z,7.97
2023-02-04T17:57:52.209Z,10.23
2023-02-04T18:00:15.101Z,11.60
2023-02-04T18:02:37.479Z,10.00
2023-02-04T18:04:59.862Z,9.50
2023-02-04T18:07:22.229Z,10.07
2023-02-04T18:09:45.002Z,9.00
2023-02-04T18:12:12.313Z,8.77
2023-02-04T18:14:33.126Z,8.77
2023-02-04T18:16:57.793Z,11.30
2023-02-04T18:19:20.369Z,6.90
2023-02-04T18:21:41.277Z,10.70
2023-02-04T18:24:06.029Z,7.97
2023-02-04T18:26:28.560Z,10.43
2023-02-04T18:28:51.151Z,9.73
2023-02-04T18:31:22.912Z,6.80
2023-02-04T18:33:45.068Z,5.43
2023-02-04T18:36:06.959Z,6.30
2023-02-04T18:38:29.219Z,6.33
2023-02-04T18:40:50.855Z,7.13
2023-02-04T18:43:18.016Z,5.40
2023-02-04T18:45:39.473Z,6.30
2023-02-04T18:48:01.357Z,7.43
2023-02-04T18:50:29.620Z,4.27
2023-02-04T18:52:50.934Z,5.07
2023-02-04T18:55:19.477Z,5.17
2023-02-04T18:57:40.838Z,4.50
2023-02-04T19:00:25.323Z,8.77
2023-02-04T19:02:48.577Z,5.20
2023-02-04T19:05:20.589Z,7.43
2023-02-04T19:07:41.900Z,3.90
2023-02-04T19:10:13.298Z,5.97
2023-02-04T19:12:34.540Z,5.07
2023-02-04T19:14:55.800Z,6.10
2023-02-04T19:17:21.831Z,4.93
2023-02-04T19:19:44.494Z,7.40
2023-02-04T19:22:14.726Z,7.97
2023-02-04T19:24:35.740Z,9.13
2023-02-04T19:26:57.967Z,7.57
2023-02-04T19:29:43.441Z,12.93
2023-02-04T19:32:17.279Z,10.67
2023-02-04T19:34:39.948Z,11.37
2023-02-04T19:37:01.230Z,13.13
2023-02-04T19:39:29.543Z,21.03
2023-02-04T19:41:51.896Z,15.53
2023-02-04T19:44:34.650Z,20.60
2023-02-04T19:46:57.318Z,16.90
2023-02-04T19:49:26.265Z,19.47
2023-02-04T19:51:51.086Z,15.73
2023-02-04T19:54:17.430Z,14.27
2023-02-04T19:56:39.620Z,14.93
2023-02-04T19:59:19.081Z,13.37
2023-02-04T20:01:40.404Z,16.23
2023-02-04T20:04:02.904Z,12.17
2023-02-04T20:06:28.497Z,12.40
2023-02-04T20:08:55.218Z,11.60
2023-02-04T20:11:38.250Z,12.87
2023-02-04T20:14:01.296Z,12.50
2023-02-04T20:16:30.956Z,18.03
2023-02-04T20:18:52.329Z,12.20
2023-02-04T20:21:14.965Z,13.17
2023-02-04T20:23:36.295Z,13.40
2023-02-04T20:26:00.312Z,11.50
2023-02-04T20:28:29.983Z,13.73
2023-02-04T20:30:51.787Z,19.77
2023-02-04T20:33:25.158Z,20.53
2023-02-04T20:35:57.453Z,26.50
2023-02-04T20:38:19.250Z,24.53
2023-02-04T20:40:40.437Z,17.53
2023-02-04T20:43:03.344Z,15.93
2023-02-04T20:45:29.698Z,12.90
2023-02-04T20:47:52.001Z,16.20
2023-02-04T20:50:32.617Z,11.43
2023-02-04T20:53:05.891Z,12.97
2023-02-04T20:55:28.314Z,17.87
2023-02-04T20:57:49.452Z,15.27
2023-02-04T21:00:16.409Z,11.60
2023-02-04T21:02:38.823Z,14.17
2023-02-04T21:05:01.932Z,10.57
2023-02-04T21:07:23.709Z,11.00
2023-02-04T21:09:45.552Z,17.40
2023-02-04T21:12:07.122Z,8.87
2023-02-04T21:14:29.354Z,13.73
2023-02-04T21:16:52.656Z,13.37
2023-02-04T21:19:14.497Z,13.23
2023-02-04T21:21:35.617Z,14.23
2023-02-04T21:23:56.756Z,12.93
2023-02-04T21:26:18.285Z,16.73
2023-02-04T21:28:39.600Z,13.93
2023-02-04T21:31:01.001Z,15.03
2023-02-04T21:33:23.670Z,14.20
2023-02-04T21:35:44.716Z,15.60
2023-02-04T21:38:06.943Z,16.27
2023-02-04T21:40:28.206Z,17.37
2023-02-04T21:42:49.465Z,17.77
2023-02-04T21:45:10.795Z,17.07
2023-02-04T21:47:31.868Z,17.57
2023-02-04T21:49:55.499Z,13.80
2023-02-04T21:52:16.762Z,16.53
2023-02-04T21:54:38.204Z,19.07
2023-02-04T21:57:01.944Z,14.07
2023-02-04T21:59:25.164Z,17.33
2023-02-04T22:01:46.584Z,14.97
2023-02-04T22:04:07.963Z,16.27
2023-02-04T22:06:30.503Z,18.43
2023-02-04T22:08:51.906Z,14.23
2023-02-04T22:11:13.203Z,15.93
2023-02-04T22:13:34.371Z,25.93
2023-02-04T22:15:55.707Z,21.43
2023-02-04T22:18:16.826Z,22.33
2023-02-04T22:20:39.469Z,22.57
2023-02-04T22:23:02.206Z,23.37
2023-02-04T22:25:23.531Z,20.17
2023-02-04T22:27:44.781Z,19.40
2023-02-04T22:30:06.615Z,17.43
2023-02-04T22:32:27.991Z,16.23
2023-02-04T22:34:49.366Z,15.47
2023-02-04T22:37:10.772Z,15.63
2023-02-04T22:39:34.192Z,15.13
2023-02-04T22:41:55.173Z,16.50
2023-02-04T22:44:16.605Z,17.50
2023-02-04T22:46:37.967Z,15.43
2023-02-04T22:48:59.139Z,13.83
2023-02-04T22:51:20.682Z,14.77
2023-02-04T22:53:41.944Z,15.53
2023-02-04T22:56:04.665Z,15.67
2023-02-04T22:58:25.752Z,14.17
2023-02-04T23:00:47.026Z,17.90
2023-02-04T23:03:08.309Z,15.07
2023-02-04T23:05:29.420Z,15.90
2023-02-04T23:07:50.717Z,17.37
2023-02-04T23:10:12.106Z,16.60
2023-02-04T23:12:34.943Z,16.40
2023-02-04T23:14:56.530Z,20.07
2023-02-04T23:17:18.371Z,17.73
2023-02-04T23:19:39.939Z,16.47
2023-02-04T23:22:01.032Z,16.93
2023-02-04T23:24:22.461Z,16.13
2023-02-04T23:26:43.779Z,14.93
2023-02-04T23:29:06.412Z,17.73
2023-02-04T23:31:27.767Z,16.60
2023-02-04T23:33:48.733Z,16.00
2023-02-04T23:36:10.250Z,16.77
2023-02-04T23:38:31.611Z,18.40
2023-02-04T23:40:52.932Z,15.73
2023-02-04T23:43:13.977Z,17.97
2023-02-04T23:45:37.085Z,16.27
2023-02-04T23:47:58.509Z,17.63
2023-02-04T23:50:20.003Z,17.40
2023-02-04T23:52:41.390Z,15.97
2023-02-04T23:55:02.776Z,15.40
2023-02-04T23:57:24.062Z,16.07
2023-02-04T23:59:45.120Z,18.57
